PWSweather.com
Personal Weather Stations
Station Observations
KNHRINDG3
Converse Meadow Pond, Rindge, NH 03461

Converse Meadow PondRindge, NH 03461

Lat: 42.74, Lon: -71.98

Elevation: 1060

Station Type: Davis Vantage Pro 2

http://nhwoodworker.com/weather/index.php

High Low Average
Temperature 42.0°F5.6°F 32.8°F0.4°F 36.1°F2.3°F
Dew Point 41.7°F5.4°F 31.6°F-0.2°F 35.6°F2.0°F
Winds 3.5 mph N5.6 mph N Calm Calm 0.4 mph 0.6 mph
Wind Gusts 6.9 mph11.1 mph -- 1.1 mph1.8 mph
Humidity 100% 94% 98%
Pressure 29.92 in1013.20 in 29.71 in1006.10 in -
Precipitation 0.47 in11.90 in - -
Hour Temp Dew Point Humidity Winds Wind Gusts Pressure Precip Precip Rate Daily Precip Total
12:00 AM 34.2°F1.2°C 33.9°F1.1°C 99% Calm Calm -- 29.92 in1013.2 mb 0.01 in0.3 mm 0.00 in/hr0.0 mm/hr 0.01 in0.3 mm
12:10 AM 34.2°F1.2°C 33.9°F1.1°C 99% Calm Calm 1.2 mph1.9 kmh 29.92 in1013.2 mb 0.01 in0.3 mm 0.06 in/hr1.5 mm/hr 0.01 in0.3 mm
12:20 AM 34.2°F1.2°C 33.9°F1.1°C 99% Calm Calm -- 29.92 in1013.2 mb 0.01 in0.3 mm 0.06 in/hr1.5 mm/hr 0.01 in0.3 mm
12:30 AM 34.2°F1.2°C 34.0°F1.1°C 99% Calm Calm -- 29.91 in1012.9 mb 0.00 in0.0 mm 0.00 in/hr0.0 mm/hr 0.01 in0.3 mm
12:40 AM 34.1°F1.2°C 33.8°F1.0°C 99% Calm Calm -- 29.91 in1012.9 mb 0.00 in0.0 mm 0.00 in/hr0.0 mm/hr 0.01 in0.3 mm
12:50 AM 33.9°F1.1°C 33.6°F0.9°C 99% Calm Calm -- 29.90 in1012.5 mb 0.01 in0.3 mm 0.06 in/hr1.5 mm/hr 0.02 in0.5 mm
01:00 AM 33.8°F1.0°C 33.6°F0.9°C 99% Calm Calm -- 29.90 in1012.5 mb 0.00 in0.0 mm 0.00 in/hr0.0 mm/hr 0.02 in0.5 mm
01:10 AM 33.6°F0.9°C 33.4°F0.8°C 99% Calm Calm -- 29.89 in1012.2 mb 0.00 in0.0 mm 0.00 in/hr0.0 mm/hr 0.02 in0.5 mm
01:20 AM 33.6°F0.9°C 33.4°F0.8°C 99% Calm Calm -- 29.89 in1012.2 mb 0.00 in0.0 mm 0.00 in/hr0.0 mm/hr 0.02 in0.5 mm
01:30 AM 33.5°F0.8°C 33.3°F0.7°C 99% Calm Calm -- 29.89 in1012.2 mb 0.00 in0.0 mm 0.00 in/hr0.0 mm/hr 0.02 in0.5 mm
01:40 AM 33.5°F0.8°C 33.3°F0.7°C 99% Calm Calm -- 29.89 in1012.2 mb 0.00 in0.0 mm 0.00 in/hr0.0 mm/hr 0.02 in0.5 mm
01:50 AM 33.6°F0.9°C 33.3°F0.7°C 99% Calm Calm -- 29.89 in1012.2 mb 0.01 in0.3 mm 0.06 in/hr1.5 mm/hr 0.03 in0.8 mm
02:00 AM 33.6°F0.9°C 33.3°F0.7°C 99% Calm Calm -- 29.89 in1012.2 mb 0.00 in0.0 mm 0.00 in/hr0.0 mm/hr 0.03 in0.8 mm
02:10 AM 33.6°F0.9°C 33.3°F0.7°C 99% Calm Calm -- 29.88 in1011.9 mb 0.00 in0.0 mm 0.00 in/hr0.0 mm/hr 0.03 in0.8 mm
02:20 AM 33.6°F0.9°C 33.3°F0.7°C 99% Calm Calm -- 29.88 in1011.9 mb 0.01 in0.3 mm 0.06 in/hr1.5 mm/hr 0.04 in1.0 mm
02:40 AM 33.4°F0.8°C 33.2°F0.7°C 99% 1.2 mph W1.9 kmh W 1.2 mph1.9 kmh 29.86 in1011.2 mb 0.00 in0.0 mm 0.00 in/hr0.0 mm/hr 0.04 in1.0 mm
02:50 AM 33.4°F0.8°C 33.1°F0.6°C 99% Calm Calm 1.2 mph1.9 kmh 29.86 in1011.2 mb 0.01 in0.3 mm 0.06 in/hr1.5 mm/hr 0.05 in1.3 mm
03:00 AM 33.4°F0.8°C 33.1°F0.6°C 99% Calm Calm -- 29.86 in1011.2 mb 0.01 in0.3 mm 0.01 in/hr0.3 mm/hr 0.06 in1.5 mm
03:10 AM 33.4°F0.8°C 33.1°F0.6°C 99% Calm Calm -- 29.86 in1011.2 mb 0.02 in0.5 mm 0.12 in/hr3.0 mm/hr 0.08 in2.0 mm
03:20 AM 33.4°F0.8°C 33.1°F0.6°C 99% Calm Calm -- 29.85 in1010.8 mb 0.02 in0.5 mm 0.12 in/hr3.0 mm/hr 0.09 in2.3 mm
03:30 AM 33.3°F0.7°C 33.1°F0.6°C 99% Calm Calm -- 29.85 in1010.8 mb 0.02 in0.5 mm 0.12 in/hr3.0 mm/hr 0.11 in2.8 mm
03:40 AM 33.4°F0.8°C 33.1°F0.6°C 99% Calm Calm -- 29.85 in1010.8 mb 0.02 in0.5 mm 0.12 in/hr3.0 mm/hr 0.12 in3.0 mm
03:50 AM 33.3°F0.7°C 33.1°F0.6°C 99% Calm Calm -- 29.84 in1010.5 mb 0.02 in0.5 mm 0.12 in/hr3.0 mm/hr 0.14 in3.6 mm
04:00 AM 33.3°F0.7°C 33.0°F0.6°C 99% Calm Calm -- 29.84 in1010.5 mb 0.03 in0.8 mm 0.04 in/hr1.0 mm/hr 0.17 in4.3 mm
04:10 AM 33.3°F0.7°C 33.0°F0.6°C 99% Calm Calm -- 29.84 in1010.5 mb 0.02 in0.5 mm 0.12 in/hr3.0 mm/hr 0.19 in4.8 mm
04:20 AM 33.2°F0.7°C 33.0°F0.6°C 99% Calm Calm -- 29.83 in1010.2 mb 0.02 in0.5 mm 0.12 in/hr3.0 mm/hr 0.21 in5.3 mm
04:30 AM 33.2°F0.7°C 33.0°F0.6°C 99% Calm Calm -- 29.83 in1010.2 mb 0.01 in0.3 mm 0.06 in/hr1.5 mm/hr 0.22 in5.6 mm
04:40 AM 33.2°F0.7°C 33.0°F0.6°C 99% Calm Calm -- 29.82 in1009.8 mb 0.01 in0.3 mm 0.06 in/hr1.5 mm/hr 0.23 in5.8 mm
04:50 AM 33.2°F0.7°C 33.0°F0.6°C 99% Calm Calm -- 29.82 in1009.8 mb 0.02 in0.5 mm 0.12 in/hr3.0 mm/hr 0.25 in6.4 mm
05:00 AM 33.2°F0.7°C 33.0°F0.6°C 99% Calm Calm 1.2 mph1.9 kmh 29.81 in1009.5 mb 0.02 in0.5 mm 0.02 in/hr0.5 mm/hr 0.27 in6.9 mm
05:10 AM 33.2°F0.7°C 33.0°F0.6°C 99% Calm Calm 1.2 mph1.9 kmh 29.81 in1009.5 mb 0.02 in0.5 mm 0.12 in/hr3.0 mm/hr 0.28 in7.1 mm
05:20 AM 33.2°F0.7°C 33.0°F0.6°C 99% Calm Calm -- 29.81 in1009.5 mb 0.01 in0.3 mm 0.06 in/hr1.5 mm/hr 0.29 in7.4 mm
05:30 AM 33.3°F0.7°C 33.0°F0.6°C 99% Calm Calm -- 29.81 in1009.5 mb 0.02 in0.5 mm 0.12 in/hr3.0 mm/hr 0.31 in7.9 mm
05:40 AM 33.2°F0.7°C 33.0°F0.6°C 99% Calm Calm 1.2 mph1.9 kmh 29.80 in1009.1 mb 0.01 in0.3 mm 0.06 in/hr1.5 mm/hr 0.31 in7.9 mm
05:50 AM 33.2°F0.7°C 33.0°F0.6°C 99% Calm Calm -- 29.80 in1009.1 mb 0.00 in0.0 mm 0.00 in/hr0.0 mm/hr 0.31 in7.9 mm
06:00 AM 33.2°F0.7°C 33.0°F0.6°C 99% Calm Calm -- 29.80 in1009.1 mb 0.01 in0.3 mm 0.01 in/hr0.3 mm/hr 0.32 in8.1 mm
06:10 AM 33.3°F0.7°C 33.0°F0.6°C 99% Calm Calm -- 29.80 in1009.1 mb 0.00 in0.0 mm 0.00 in/hr0.0 mm/hr 0.32 in8.1 mm
06:20 AM 33.3°F0.7°C 33.1°F0.6°C 99% Calm Calm -- 29.80 in1009.1 mb 0.01 in0.3 mm 0.06 in/hr1.5 mm/hr 0.33 in8.4 mm
06:30 AM 33.4°F0.8°C 33.1°F0.6°C 99% Calm Calm -- 29.80 in1009.1 mb 0.00 in0.0 mm 0.00 in/hr0.0 mm/hr 0.33 in8.4 mm
06:40 AM 33.4°F0.8°C 33.1°F0.6°C 99% Calm Calm -- 29.79 in1008.8 mb 0.00 in0.0 mm 0.00 in/hr0.0 mm/hr 0.33 in8.4 mm
06:50 AM 33.4°F0.8°C 33.1°F0.6°C 99% Calm Calm -- 29.79 in1008.8 mb 0.00 in0.0 mm 0.00 in/hr0.0 mm/hr 0.33 in8.4 mm
07:00 AM 33.4°F0.8°C 33.1°F0.6°C 99% Calm Calm -- 29.79 in1008.8 mb 0.00 in0.0 mm 0.00 in/hr0.0 mm/hr 0.33 in8.4 mm
07:10 AM 33.5°F0.8°C 33.2°F0.7°C 99% Calm Calm 1.2 mph1.9 kmh 29.79 in1008.8 mb 0.00 in0.0 mm 0.00 in/hr0.0 mm/hr 0.33 in8.4 mm
07:20 AM 33.5°F0.8°C 33.3°F0.7°C 99% Calm Calm 2.3 mph3.7 kmh 29.78 in1008.5 mb 0.01 in0.3 mm 0.06 in/hr1.5 mm/hr 0.34 in8.6 mm
07:30 AM 33.6°F0.9°C 33.4°F0.8°C 99% Calm Calm -- 29.79 in1008.8 mb 0.00 in0.0 mm 0.00 in/hr0.0 mm/hr 0.34 in8.6 mm
07:40 AM 33.7°F0.9°C 33.4°F0.8°C 99% Calm Calm -- 29.79 in1008.8 mb 0.00 in0.0 mm 0.00 in/hr0.0 mm/hr 0.34 in8.6 mm
07:50 AM 33.7°F0.9°C 33.4°F0.8°C 99% Calm Calm -- 29.78 in1008.5 mb 0.00 in0.0 mm 0.00 in/hr0.0 mm/hr 0.34 in8.6 mm
08:00 AM 33.7°F0.9°C 33.4°F0.8°C 99% Calm Calm 1.2 mph1.9 kmh 29.78 in1008.5 mb 0.00 in0.0 mm 0.00 in/hr0.0 mm/hr 0.34 in8.6 mm
08:10 AM 33.9°F1.1°C 33.6°F0.9°C 99% Calm Calm -- 29.78 in1008.5 mb 0.00 in0.0 mm 0.00 in/hr0.0 mm/hr 0.34 in8.6 mm
08:20 AM 33.9°F1.1°C 33.6°F0.9°C 99% Calm Calm -- 29.78 in1008.5 mb 0.00 in0.0 mm 0.00 in/hr0.0 mm/hr 0.34 in8.6 mm
08:30 AM 34.1°F1.2°C 33.8°F1.0°C 99% Calm Calm -- 29.78 in1008.5 mb 0.00 in0.0 mm 0.00 in/hr0.0 mm/hr 0.34 in8.6 mm
08:40 AM 34.4°F1.3°C 34.1°F1.2°C 99% 1.2 mph SE1.9 kmh SE 2.3 mph3.7 kmh 29.79 in1008.8 mb 0.00 in0.0 mm 0.00 in/hr0.0 mm/hr 0.34 in8.6 mm
08:50 AM 34.9°F1.6°C 34.9°F1.6°C 100% Calm Calm -- 29.79 in1008.8 mb 0.01 in0.3 mm 0.06 in/hr1.5 mm/hr 0.35 in8.9 mm
09:00 AM 34.8°F1.6°C 34.8°F1.6°C 100% Calm Calm -- 29.79 in1008.8 mb 0.01 in0.3 mm 0.01 in/hr0.3 mm/hr 0.36 in9.1 mm
09:10 AM 35.1°F1.7°C 35.1°F1.7°C 100% Calm Calm -- 29.78 in1008.5 mb 0.02 in0.5 mm 0.12 in/hr3.0 mm/hr 0.38 in9.7 mm
09:20 AM 35.7°F2.1°C 35.4°F1.9°C 99% Calm Calm -- 29.78 in1008.5 mb 0.02 in0.5 mm 0.12 in/hr3.0 mm/hr 0.40 in10.2 mm
09:30 AM 36.1°F2.3°C 36.1°F2.3°C 100% Calm Calm 1.2 mph1.9 kmh 29.78 in1008.5 mb 0.00 in0.0 mm 0.00 in/hr0.0 mm/hr 0.40 in10.2 mm
09:40 AM 36.2°F2.3°C 36.2°F2.3°C 100% Calm Calm -- 29.78 in1008.5 mb 0.00 in0.0 mm 0.00 in/hr0.0 mm/hr 0.40 in10.2 mm
09:50 AM 36.5°F2.5°C 36.5°F2.5°C 100% Calm Calm -- 29.78 in1008.5 mb 0.00 in0.0 mm 0.00 in/hr0.0 mm/hr 0.40 in10.2 mm
10:00 AM 37.1°F2.8°C 37.1°F2.8°C 100% Calm Calm -- 29.77 in1008.1 mb 0.00 in0.0 mm 0.00 in/hr0.0 mm/hr 0.40 in10.2 mm
10:10 AM 37.6°F3.1°C 37.6°F3.1°C 100% Calm Calm -- 29.77 in1008.1 mb 0.00 in0.0 mm 0.00 in/hr0.0 mm/hr 0.40 in10.2 mm
10:20 AM 37.9°F3.3°C 37.9°F3.3°C 100% Calm Calm 2.3 mph3.7 kmh 29.77 in1008.1 mb 0.00 in0.0 mm 0.00 in/hr0.0 mm/hr 0.40 in10.2 mm
10:30 AM 38.5°F3.6°C 38.5°F3.6°C 100% 1.2 mph N1.9 kmh N 2.3 mph3.7 kmh 29.77 in1008.1 mb 0.00 in0.0 mm 0.00 in/hr0.0 mm/hr 0.40 in10.2 mm
10:40 AM 39.3°F4.1°C 39.3°F4.1°C 100% 1.2 mph NW1.9 kmh NW 3.5 mph5.6 kmh 29.76 in1007.8 mb 0.00 in0.0 mm 0.00 in/hr0.0 mm/hr 0.40 in10.2 mm
10:50 AM 39.8°F4.3°C 39.8°F4.3°C 100% Calm Calm -- 29.75 in1007.5 mb 0.00 in0.0 mm 0.00 in/hr0.0 mm/hr 0.40 in10.2 mm
11:00 AM 40.4°F4.7°C 40.4°F4.7°C 100% 1.2 mph NE1.9 kmh NE 1.2 mph1.9 kmh 29.75 in1007.5 mb 0.00 in0.0 mm 0.00 in/hr0.0 mm/hr 0.40 in10.2 mm
11:10 AM 40.6°F4.8°C 40.6°F4.8°C 100% 1.2 mph SSW1.9 kmh SSW 1.2 mph1.9 kmh 29.74 in1007.1 mb 0.00 in0.0 mm 0.00 in/hr0.0 mm/hr 0.40 in10.2 mm
11:20 AM 40.1°F4.5°C 40.1°F4.5°C 100% Calm Calm -- 29.73 in1006.8 mb 0.00 in0.0 mm 0.00 in/hr0.0 mm/hr 0.40 in10.2 mm
11:30 AM 40.4°F4.7°C 40.4°F4.7°C 100% Calm Calm -- 29.73 in1006.8 mb 0.00 in0.0 mm 0.00 in/hr0.0 mm/hr 0.40 in10.2 mm
11:40 AM 40.6°F4.8°C 40.6°F4.8°C 100% Calm Calm 1.2 mph1.9 kmh 29.73 in1006.8 mb 0.00 in0.0 mm 0.00 in/hr0.0 mm/hr 0.40 in10.2 mm
11:50 AM 40.9°F4.9°C 40.9°F4.9°C 100% Calm Calm 2.3 mph3.7 kmh 29.73 in1006.8 mb 0.00 in0.0 mm 0.00 in/hr0.0 mm/hr 0.40 in10.2 mm
12:00 PM 40.6°F4.8°C 40.6°F4.8°C 100% Calm Calm 1.2 mph1.9 kmh 29.72 in1006.4 mb 0.00 in0.0 mm 0.00 in/hr0.0 mm/hr 0.40 in10.2 mm
12:10 PM 41.0°F5.0°C 41.0°F5.0°C 100% Calm Calm 1.2 mph1.9 kmh 29.72 in1006.4 mb 0.00 in0.0 mm 0.00 in/hr0.0 mm/hr 0.40 in10.2 mm
12:20 PM 41.5°F5.3°C 41.5°F5.3°C 100% Calm Calm -- 29.71 in1006.1 mb 0.00 in0.0 mm 0.00 in/hr0.0 mm/hr 0.40 in10.2 mm
12:30 PM 41.8°F5.4°C 41.6°F5.3°C 99% Calm Calm 1.2 mph1.9 kmh 29.71 in1006.1 mb 0.00 in0.0 mm 0.00 in/hr0.0 mm/hr 0.40 in10.2 mm
12:40 PM 42.0°F5.6°C 41.7°F5.4°C 99% 1.2 mph WNW1.9 kmh WNW 3.5 mph5.6 kmh 29.71 in1006.1 mb 0.00 in0.0 mm 0.00 in/hr0.0 mm/hr 0.40 in10.2 mm
12:50 PM 42.0°F5.6°C 41.7°F5.4°C 99% 1.2 mph N1.9 kmh N 3.5 mph5.6 kmh 29.71 in1006.1 mb 0.00 in0.0 mm 0.00 in/hr0.0 mm/hr 0.40 in10.2 mm
01:00 PM 41.8°F5.4°C 41.0°F5.0°C 97% Calm Calm 3.5 mph5.6 kmh 29.71 in1006.1 mb 0.01 in0.3 mm 0.01 in/hr0.3 mm/hr 0.41 in10.4 mm
01:10 PM 41.6°F5.3°C 40.8°F4.9°C 97% 2.3 mph SW3.7 kmh SW 4.6 mph7.4 kmh 29.71 in1006.1 mb 0.00 in0.0 mm 0.00 in/hr0.0 mm/hr 0.41 in10.4 mm
01:20 PM 41.4°F5.2°C 40.3°F4.6°C 96% 1.2 mph N1.9 kmh N 2.3 mph3.7 kmh 29.71 in1006.1 mb 0.00 in0.0 mm 0.00 in/hr0.0 mm/hr 0.41 in10.4 mm
01:30 PM 41.2°F5.1°C 40.1°F4.5°C 96% 3.5 mph N5.6 kmh N 3.5 mph5.6 kmh 29.71 in1006.1 mb 0.00 in0.0 mm 0.00 in/hr0.0 mm/hr 0.41 in10.4 mm
01:40 PM 41.0°F5.0°C 39.9°F4.4°C 96% 1.2 mph S1.9 kmh S 1.2 mph1.9 kmh 29.71 in1006.1 mb 0.00 in0.0 mm 0.00 in/hr0.0 mm/hr 0.41 in10.4 mm
01:50 PM 41.1°F5.1°C 40.0°F4.4°C 96% 1.2 mph SW1.9 kmh SW 2.3 mph3.7 kmh 29.71 in1006.1 mb 0.00 in0.0 mm 0.00 in/hr0.0 mm/hr 0.41 in10.4 mm
02:00 PM 41.1°F5.1°C 39.8°F4.3°C 95% 2.3 mph NNE3.7 kmh NNE 3.5 mph5.6 kmh 29.71 in1006.1 mb 0.00 in0.0 mm 0.00 in/hr0.0 mm/hr 0.41 in10.4 mm
02:10 PM 41.1°F5.1°C 39.8°F4.3°C 95% 1.2 mph NNW1.9 kmh NNW 4.6 mph7.4 kmh 29.71 in1006.1 mb 0.00 in0.0 mm 0.00 in/hr0.0 mm/hr 0.41 in10.4 mm
02:20 PM 40.9°F4.9°C 39.6°F4.2°C 95% Calm Calm 1.2 mph1.9 kmh 29.71 in1006.1 mb 0.00 in0.0 mm 0.00 in/hr0.0 mm/hr 0.41 in10.4 mm
02:30 PM 40.9°F4.9°C 39.6°F4.2°C 95% 2.3 mph NW3.7 kmh NW 3.5 mph5.6 kmh 29.72 in1006.4 mb 0.00 in0.0 mm 0.00 in/hr0.0 mm/hr 0.41 in10.4 mm
02:40 PM 40.6°F4.8°C 39.3°F4.1°C 95% 1.2 mph W1.9 kmh W 1.2 mph1.9 kmh 29.72 in1006.4 mb 0.00 in0.0 mm 0.00 in/hr0.0 mm/hr 0.41 in10.4 mm
02:50 PM 40.4°F4.7°C 39.1°F3.9°C 95% Calm Calm -- 29.72 in1006.4 mb 0.00 in0.0 mm 0.00 in/hr0.0 mm/hr 0.41 in10.4 mm
03:00 PM 40.4°F4.7°C 39.1°F3.9°C 95% 1.2 mph WSW1.9 kmh WSW 1.2 mph1.9 kmh 29.71 in1006.1 mb 0.00 in0.0 mm 0.00 in/hr0.0 mm/hr 0.41 in10.4 mm
03:10 PM 40.1°F4.5°C 38.8°F3.8°C 95% 1.2 mph WSW1.9 kmh WSW 2.3 mph3.7 kmh 29.72 in1006.4 mb 0.00 in0.0 mm 0.00 in/hr0.0 mm/hr 0.41 in10.4 mm
03:20 PM 40.0°F4.4°C 39.0°F3.9°C 96% Calm Calm 2.3 mph3.7 kmh 29.72 in1006.4 mb 0.00 in0.0 mm 0.00 in/hr0.0 mm/hr 0.41 in10.4 mm
03:30 PM 39.9°F4.4°C 38.9°F3.8°C 96% 1.2 mph WSW1.9 kmh WSW 3.5 mph5.6 kmh 29.72 in1006.4 mb 0.00 in0.0 mm 0.00 in/hr0.0 mm/hr 0.41 in10.4 mm
03:40 PM 39.9°F4.4°C 38.9°F3.8°C 96% Calm Calm 1.2 mph1.9 kmh 29.72 in1006.4 mb 0.00 in0.0 mm 0.00 in/hr0.0 mm/hr 0.41 in10.4 mm
03:50 PM 39.7°F4.3°C 38.7°F3.7°C 96% 1.2 mph NW1.9 kmh NW 2.3 mph3.7 kmh 29.72 in1006.4 mb 0.00 in0.0 mm 0.00 in/hr0.0 mm/hr 0.41 in10.4 mm
04:00 PM 39.6°F4.2°C 38.6°F3.7°C 96% Calm Calm -- 29.72 in1006.4 mb 0.00 in0.0 mm 0.00 in/hr0.0 mm/hr 0.41 in10.4 mm
04:10 PM 39.3°F4.1°C 38.3°F3.5°C 96% Calm Calm -- 29.72 in1006.4 mb 0.00 in0.0 mm 0.00 in/hr0.0 mm/hr 0.41 in10.4 mm
04:20 PM 39.2°F4.0°C 38.2°F3.4°C 96% Calm Calm -- 29.73 in1006.8 mb 0.00 in0.0 mm 0.00 in/hr0.0 mm/hr 0.41 in10.4 mm
04:30 PM 39.1°F3.9°C 38.3°F3.5°C 97% 1.2 mph S1.9 kmh S 2.3 mph3.7 kmh 29.73 in1006.8 mb 0.00 in0.0 mm 0.00 in/hr0.0 mm/hr 0.41 in10.4 mm
04:40 PM 38.8°F3.8°C 38.0°F3.3°C 97% Calm Calm -- 29.73 in1006.8 mb 0.00 in0.0 mm 0.00 in/hr0.0 mm/hr 0.41 in10.4 mm
04:50 PM 38.5°F3.6°C 37.7°F3.2°C 97% Calm Calm -- 29.73 in1006.8 mb 0.00 in0.0 mm 0.00 in/hr0.0 mm/hr 0.41 in10.4 mm
05:00 PM 38.1°F3.4°C 37.1°F2.8°C 96% Calm Calm -- 29.72 in1006.4 mb 0.00 in0.0 mm 0.00 in/hr0.0 mm/hr 0.41 in10.4 mm
05:10 PM 37.3°F2.9°C 36.2°F2.3°C 96% Calm Calm -- 29.73 in1006.8 mb 0.00 in0.0 mm 0.00 in/hr0.0 mm/hr 0.41 in10.4 mm
05:20 PM 36.5°F2.5°C 35.5°F1.9°C 96% Calm Calm -- 29.73 in1006.8 mb 0.00 in0.0 mm 0.00 in/hr0.0 mm/hr 0.41 in10.4 mm
05:30 PM 36.0°F2.2°C 35.0°F1.7°C 96% Calm Calm -- 29.73 in1006.8 mb 0.00 in0.0 mm 0.00 in/hr0.0 mm/hr 0.41 in10.4 mm
05:40 PM 35.4°F1.9°C 34.6°F1.4°C 97% Calm Calm -- 29.73 in1006.8 mb 0.00 in0.0 mm 0.00 in/hr0.0 mm/hr 0.41 in10.4 mm
05:50 PM 35.1°F1.7°C 34.3°F1.3°C 97% Calm Calm -- 29.74 in1007.1 mb 0.00 in0.0 mm 0.00 in/hr0.0 mm/hr 0.41 in10.4 mm
06:00 PM 35.1°F1.7°C 34.3°F1.3°C 97% Calm Calm -- 29.74 in1007.1 mb 0.00 in0.0 mm 0.00 in/hr0.0 mm/hr 0.41 in10.4 mm
06:10 PM 35.3°F1.8°C 34.8°F1.6°C 98% Calm Calm -- 29.74 in1007.1 mb 0.00 in0.0 mm 0.00 in/hr0.0 mm/hr 0.41 in10.4 mm
06:20 PM 35.7°F2.1°C 35.2°F1.8°C 98% Calm Calm 1.2 mph1.9 kmh 29.75 in1007.5 mb 0.00 in0.0 mm 0.00 in/hr0.0 mm/hr 0.41 in10.4 mm
06:30 PM 36.4°F2.4°C 36.1°F2.3°C 99% 1.2 mph S1.9 kmh S 2.3 mph3.7 kmh 29.75 in1007.5 mb 0.00 in0.0 mm 0.00 in/hr0.0 mm/hr 0.41 in10.4 mm
06:40 PM 36.9°F2.7°C 36.6°F2.6°C 99% 1.2 mph WSW1.9 kmh WSW 3.5 mph5.6 kmh 29.75 in1007.5 mb 0.00 in0.0 mm 0.00 in/hr0.0 mm/hr 0.41 in10.4 mm
06:50 PM 37.1°F2.8°C 36.8°F2.7°C 99% 1.2 mph E1.9 kmh E 3.5 mph5.6 kmh 29.74 in1007.1 mb 0.00 in0.0 mm 0.00 in/hr0.0 mm/hr 0.41 in10.4 mm
07:00 PM 37.1°F2.8°C 36.8°F2.7°C 99% 1.2 mph SW1.9 kmh SW 5.8 mph9.3 kmh 29.74 in1007.1 mb 0.00 in0.0 mm 0.00 in/hr0.0 mm/hr 0.41 in10.4 mm
07:10 PM 37.1°F2.8°C 36.6°F2.6°C 98% 1.2 mph W1.9 kmh W 2.3 mph3.7 kmh 29.74 in1007.1 mb 0.00 in0.0 mm 0.00 in/hr0.0 mm/hr 0.41 in10.4 mm
07:20 PM 37.0°F2.8°C 36.5°F2.5°C 98% 1.2 mph WSW1.9 kmh WSW 1.2 mph1.9 kmh 29.74 in1007.1 mb 0.00 in0.0 mm 0.00 in/hr0.0 mm/hr 0.41 in10.4 mm
07:30 PM 36.9°F2.7°C 36.4°F2.4°C 98% 1.2 mph WSW1.9 kmh WSW 3.5 mph5.6 kmh 29.74 in1007.1 mb 0.00 in0.0 mm 0.00 in/hr0.0 mm/hr 0.41 in10.4 mm
07:40 PM 36.6°F2.6°C 35.8°F2.1°C 97% 1.2 mph SSE1.9 kmh SSE 3.5 mph5.6 kmh 29.73 in1006.8 mb 0.00 in0.0 mm 0.00 in/hr0.0 mm/hr 0.41 in10.4 mm
07:50 PM 36.4°F2.4°C 35.6°F2.0°C 97% 1.2 mph WNW1.9 kmh WNW -- 29.74 in1007.1 mb 0.00 in0.0 mm 0.00 in/hr0.0 mm/hr 0.41 in10.4 mm
08:00 PM 36.3°F2.4°C 35.3°F1.8°C 96% 1.2 mph WNW1.9 kmh WNW 2.3 mph3.7 kmh 29.73 in1006.8 mb 0.00 in0.0 mm 0.00 in/hr0.0 mm/hr 0.41 in10.4 mm
08:10 PM 36.1°F2.3°C 35.1°F1.7°C 96% Calm Calm 1.2 mph1.9 kmh 29.73 in1006.8 mb 0.00 in0.0 mm 0.00 in/hr0.0 mm/hr 0.41 in10.4 mm
08:20 PM 36.0°F2.2°C 35.0°F1.7°C 96% 1.2 mph SW1.9 kmh SW 3.5 mph5.6 kmh 29.73 in1006.8 mb 0.00 in0.0 mm 0.00 in/hr0.0 mm/hr 0.41 in10.4 mm
08:30 PM 35.8°F2.1°C 34.5°F1.4°C 95% 1.2 mph WSW1.9 kmh WSW 3.5 mph5.6 kmh 29.73 in1006.8 mb 0.00 in0.0 mm 0.00 in/hr0.0 mm/hr 0.41 in10.4 mm
08:40 PM 35.6°F2.0°C 34.3°F1.3°C 95% Calm Calm 3.5 mph5.6 kmh 29.73 in1006.8 mb 0.00 in0.0 mm 0.00 in/hr0.0 mm/hr 0.41 in10.4 mm
08:50 PM 35.5°F1.9°C 34.5°F1.4°C 96% Calm Calm 1.2 mph1.9 kmh 29.73 in1006.8 mb 0.00 in0.0 mm 0.00 in/hr0.0 mm/hr 0.41 in10.4 mm
09:00 PM 35.3°F1.8°C 34.0°F1.1°C 95% 1.2 mph SW1.9 kmh SW 2.3 mph3.7 kmh 29.73 in1006.8 mb 0.00 in0.0 mm 0.00 in/hr0.0 mm/hr 0.41 in10.4 mm
09:10 PM 35.1°F1.7°C 33.8°F1.0°C 95% 1.2 mph S1.9 kmh S 1.2 mph1.9 kmh 29.73 in1006.8 mb 0.00 in0.0 mm 0.00 in/hr0.0 mm/hr 0.41 in10.4 mm
09:20 PM 34.9°F1.6°C 33.9°F1.1°C 96% Calm Calm -- 29.74 in1007.1 mb 0.00 in0.0 mm 0.00 in/hr0.0 mm/hr 0.41 in10.4 mm
09:30 PM 34.8°F1.6°C 33.8°F1.0°C 96% 1.2 mph S1.9 kmh S 1.2 mph1.9 kmh 29.73 in1006.8 mb 0.00 in0.0 mm 0.00 in/hr0.0 mm/hr 0.41 in10.4 mm
09:40 PM 34.7°F1.5°C 33.4°F0.8°C 95% 2.3 mph SW3.7 kmh SW 6.9 mph11.1 kmh 29.74 in1007.1 mb 0.00 in0.0 mm 0.00 in/hr0.0 mm/hr 0.41 in10.4 mm
09:50 PM 34.5°F1.4°C 33.2°F0.7°C 95% 1.2 mph S1.9 kmh S 2.3 mph3.7 kmh 29.74 in1007.1 mb 0.00 in0.0 mm 0.00 in/hr0.0 mm/hr 0.41 in10.4 mm
10:00 PM 34.3°F1.3°C 33.3°F0.7°C 96% 1.2 mph WSW1.9 kmh WSW 3.5 mph5.6 kmh 29.74 in1007.1 mb 0.00 in0.0 mm 0.00 in/hr0.0 mm/hr 0.41 in10.4 mm
10:10 PM 34.2°F1.2°C 32.9°F0.5°C 95% Calm Calm 1.2 mph1.9 kmh 29.74 in1007.1 mb 0.00 in0.0 mm 0.00 in/hr0.0 mm/hr 0.41 in10.4 mm
10:20 PM 34.2°F1.2°C 32.9°F0.5°C 95% 1.2 mph S1.9 kmh S 3.5 mph5.6 kmh 29.74 in1007.1 mb 0.00 in0.0 mm 0.00 in/hr0.0 mm/hr 0.41 in10.4 mm
10:30 PM 34.0°F1.1°C 32.7°F0.4°C 95% 1.2 mph WSW1.9 kmh WSW 1.2 mph1.9 kmh 29.74 in1007.1 mb 0.00 in0.0 mm 0.00 in/hr0.0 mm/hr 0.41 in10.4 mm
10:40 PM 34.0°F1.1°C 32.7°F0.4°C 95% Calm Calm -- 29.73 in1006.8 mb 0.00 in0.0 mm 0.00 in/hr0.0 mm/hr 0.41 in10.4 mm
10:50 PM 34.0°F1.1°C 32.5°F0.3°C 94% Calm Calm 1.2 mph1.9 kmh 29.73 in1006.8 mb 0.00 in0.0 mm 0.00 in/hr0.0 mm/hr 0.41 in10.4 mm
11:00 PM 33.8°F1.0°C 32.3°F0.2°C 94% 1.2 mph S1.9 kmh S 3.5 mph5.6 kmh 29.73 in1006.8 mb 0.00 in0.0 mm 0.00 in/hr0.0 mm/hr 0.41 in10.4 mm
11:10 PM 33.6°F0.9°C 32.3°F0.2°C 95% 1.2 mph S1.9 kmh S 2.3 mph3.7 kmh 29.73 in1006.8 mb 0.00 in0.0 mm 0.00 in/hr0.0 mm/hr 0.41 in10.4 mm
11:20 PM 33.4°F0.8°C 32.1°F0.1°C 95% 2.3 mph SW3.7 kmh SW 3.5 mph5.6 kmh 29.73 in1006.8 mb 0.00 in0.0 mm 0.00 in/hr0.0 mm/hr 0.41 in10.4 mm
11:30 PM 33.3°F0.7°C 32.0°F0.0°C 95% Calm Calm -- 29.73 in1006.8 mb 0.00 in0.0 mm 0.00 in/hr0.0 mm/hr 0.41 in10.4 mm
11:40 PM 33.1°F0.6°C 31.8°F-0.1°C 95% Calm Calm -- 29.72 in1006.4 mb 0.00 in0.0 mm 0.00 in/hr0.0 mm/hr 0.41 in10.4 mm
11:50 PM 32.8°F0.4°C 31.6°F-0.2°C 95% Calm Calm -- 29.72 in1006.4 mb 0.00 in0.0 mm 0.00 in/hr0.0 mm/hr 0.41 in10.4 mm